sensor_id;sensor_type;location;lat;lon;timestamp;pressure;altitude;pressure_sealevel;temperature;humidity
75051;BME280;63628;47.656;11.310;2024-01-15T00:00:16;93623.53;;;-2.81;86.87
75051;BME280;63628;47.656;11.310;2024-01-15T00:02:43;93616.66;;;-2.74;86.76
75051;BME280;63628;47.656;11.310;2024-01-15T00:05:10;93610.50;;;-2.73;86.65
75051;BME280;63628;47.656;11.310;2024-01-15T00:07:37;93603.97;;;-2.69;86.20
75051;BME280;63628;47.656;11.310;2024-01-15T00:10:04;93599.78;;;-2.70;86.35
75051;BME280;63628;47.656;11.310;2024-01-15T00:12:31;93607.56;;;-2.70;86.46
75051;BME280;63628;47.656;11.310;2024-01-15T00:14:57;93596.22;;;-2.54;88.23
75051;BME280;63628;47.656;11.310;2024-01-15T00:17:25;93587.66;;;-2.70;86.81
75051;BME280;63628;47.656;11.310;2024-01-15T00:19:52;93586.22;;;-2.72;86.82
75051;BME280;63628;47.656;11.310;2024-01-15T00:22:19;93578.47;;;-2.72;86.75
75051;BME280;63628;47.656;11.310;2024-01-15T00:24:46;93573.53;;;-2.67;87.10
75051;BME280;63628;47.656;11.310;2024-01-15T00:27:13;93585.13;;;-2.63;86.76
75051;BME280;63628;47.656;11.310;2024-01-15T00:29:39;93578.72;;;-2.67;86.67
75051;BME280;63628;47.656;11.310;2024-01-15T00:32:06;93568.53;;;-2.69;86.82
75051;BME280;63628;47.656;11.310;2024-01-15T00:34:34;93564.34;;;-2.55;88.17
75051;BME280;63628;47.656;11.310;2024-01-15T00:37:01;93567.28;;;-2.58;87.09
75051;BME280;63628;47.656;11.310;2024-01-15T00:39:28;93567.00;;;-2.63;86.62
75051;BME280;63628;47.656;11.310;2024-01-15T00:41:54;93563.00;;;-2.66;87.01
75051;BME280;63628;47.656;11.310;2024-01-15T00:44:21;93552.50;;;-2.43;88.47
75051;BME280;63628;47.656;11.310;2024-01-15T00:46:48;93560.41;;;-2.66;87.47
75051;BME280;63628;47.656;11.310;2024-01-15T00:49:15;93563.00;;;-2.51;87.63
75051;BME280;63628;47.656;11.310;2024-01-15T00:51:43;93568.53;;;-2.54;87.63
75051;BME280;63628;47.656;11.310;2024-01-15T00:54:10;93546.72;;;-2.24;89.36
75051;BME280;63628;47.656;11.310;2024-01-15T00:56:37;93556.88;;;-2.43;89.27
75051;BME280;63628;47.656;11.310;2024-01-15T00:59:03;93547.41;;;-2.36;89.07
75051;BME280;63628;47.656;11.310;2024-01-15T01:01:30;93558.53;;;-2.57;87.34
75051;BME280;63628;47.656;11.310;2024-01-15T01:03:57;93560.34;;;-2.58;87.36
75051;BME280;63628;47.656;11.310;2024-01-15T01:06:24;93558.38;;;-2.34;88.68
75051;BME280;63628;47.656;11.310;2024-01-15T01:08:52;93556.47;;;-2.26;89.60
75051;BME280;63628;47.656;11.310;2024-01-15T01:11:19;93547.34;;;-1.72;90.64
75051;BME280;63628;47.656;11.310;2024-01-15T01:13:45;93546.50;;;-2.01;90.89
75051;BME280;63628;47.656;11.310;2024-01-15T01:16:12;93541.47;;;-2.30;89.11
75051;BME280;63628;47.656;11.310;2024-01-15T01:18:39;93555.22;;;-2.30;87.13
75051;BME280;63628;47.656;11.310;2024-01-15T01:21:06;93554.84;;;-1.56;91.30
75051;BME280;63628;47.656;11.310;2024-01-15T01:23:32;93551.53;;;-1.71;91.23
75051;BME280;63628;47.656;11.310;2024-01-15T01:26:01;93548.56;;;-2.17;88.58
75051;BME280;63628;47.656;11.310;2024-01-15T01:28:27;93543.66;;;-0.87;92.29
75051;BME280;63628;47.656;11.310;2024-01-15T01:30:54;93554.31;;;-2.22;86.96
75051;BME280;63628;47.656;11.310;2024-01-15T01:33:21;93553.09;;;-1.98;89.30
75051;BME280;63628;47.656;11.310;2024-01-15T01:35:48;93560.84;;;-2.26;88.07
75051;BME280;63628;47.656;11.310;2024-01-15T01:38:14;93565.94;;;-2.11;89.27
75051;BME280;63628;47.656;11.310;2024-01-15T01:40:42;93564.97;;;-2.32;87.60
75051;BME280;63628;47.656;11.310;2024-01-15T01:43:10;93569.78;;;-2.29;87.31
75051;BME280;63628;47.656;11.310;2024-01-15T01:45:37;93579.22;;;-2.00;89.27
75051;BME280;63628;47.656;11.310;2024-01-15T01:48:05;93563.78;;;-0.55;91.80
75051;BME280;63628;47.656;11.310;2024-01-15T01:50:32;93571.22;;;-1.27;89.16
75051;BME280;63628;47.656;11.310;2024-01-15T01:53:00;93580.75;;;-2.05;87.14
75051;BME280;63628;47.656;11.310;2024-01-15T01:55:27;93576.09;;;-1.11;91.05
75051;BME280;63628;47.656;11.310;2024-01-15T01:57:56;93576.69;;;-2.14;87.71
75051;BME280;63628;47.656;11.310;2024-01-15T02:00:24;93590.19;;;-2.19;87.63
75051;BME280;63628;47.656;11.310;2024-01-15T02:02:51;93589.31;;;-1.34;91.71
75051;BME280;63628;47.656;11.310;2024-01-15T02:05:19;93586.59;;;-1.26;91.19
75051;BME280;63628;47.656;11.310;2024-01-15T02:07:47;93596.06;;;-1.68;90.44
75051;BME280;63628;47.656;11.310;2024-01-15T02:10:13;93590.13;;;-2.04;88.83
75051;BME280;63628;47.656;11.310;2024-01-15T02:12:42;93600.00;;;-2.14;87.64
75051;BME280;63628;47.656;11.310;2024-01-15T02:15:09;93599.94;;;-2.00;88.92
75051;BME280;63628;47.656;11.310;2024-01-15T02:17:56;93593.19;;;-1.23;91.36
75051;BME280;63628;47.656;11.310;2024-01-15T02:20:24;93589.63;;;-1.16;91.42
75051;BME280;63628;47.656;11.310;2024-01-15T02:22:50;93587.00;;;-0.34;93.19
75051;BME280;63628;47.656;11.310;2024-01-15T02:25:18;93577.81;;;-0.29;93.15
75051;BME280;63628;47.656;11.310;2024-01-15T02:27:46;93581.25;;;-0.22;93.67
75051;BME280;63628;47.656;11.310;2024-01-15T02:30:13;93575.84;;;-0.21;93.98
75051;BME280;63628;47.656;11.310;2024-01-15T02:32:40;93591.00;;;-0.38;93.81
75051;BME280;63628;47.656;11.310;2024-01-15T02:35:07;93592.16;;;-0.94;93.74
75051;BME280;63628;47.656;11.310;2024-01-15T02:37:33;93591.13;;;0.02;95.35
75051;BME280;63628;47.656;11.310;2024-01-15T02:40:00;93598.78;;;-0.38;95.31
75051;BME280;63628;47.656;11.310;2024-01-15T02:42:28;93600.59;;;-0.32;95.20
75051;BME280;63628;47.656;11.310;2024-01-15T02:44:55;93599.00;;;-0.33;95.55
75051;BME280;63628;47.656;11.310;2024-01-15T02:47:21;93598.63;;;-0.23;95.01
75051;BME280;63628;47.656;11.310;2024-01-15T02:49:48;93601.63;;;-0.19;95.63
75051;BME280;63628;47.656;11.310;2024-01-15T02:52:15;93603.59;;;-0.82;94.83
75051;BME280;63628;47.656;11.310;2024-01-15T02:54:41;93606.19;;;-0.82;94.85
75051;BME280;63628;47.656;11.310;2024-01-15T02:57:08;93608.59;;;-1.15;94.66
75051;BME280;63628;47.656;11.310;2024-01-15T02:59:36;93612.13;;;-1.30;93.33
75051;BME280;63628;47.656;11.310;2024-01-15T03:02:03;93599.34;;;-0.49;94.55
75051;BME280;63628;47.656;11.310;2024-01-15T03:04:30;93607.94;;;-0.89;93.60
75051;BME280;63628;47.656;11.310;2024-01-15T03:06:57;93603.72;;;-0.56;93.96
75051;BME280;63628;47.656;11.310;2024-01-15T03:09:23;93605.22;;;-0.75;94.32
75051;BME280;63628;47.656;11.310;2024-01-15T03:11:50;93605.78;;;-0.38;92.81
75051;BME280;63628;47.656;11.310;2024-01-15T03:14:17;93624.47;;;-0.62;92.51
75051;BME280;63628;47.656;11.310;2024-01-15T03:16:45;93627.94;;;-0.49;91.53
75051;BME280;63628;47.656;11.310;2024-01-15T03:19:11;93639.94;;;-1.17;90.61
75051;BME280;63628;47.656;11.310;2024-01-15T03:21:38;93637.56;;;-0.77;91.68
75051;BME280;63628;47.656;11.310;2024-01-15T03:24:05;93642.50;;;-1.23;90.68
75051;BME280;63628;47.656;11.310;2024-01-15T03:26:31;93655.94;;;-1.35;89.89
75051;BME280;63628;47.656;11.310;2024-01-15T03:28:58;93651.91;;;-1.16;90.00
75051;BME280;63628;47.656;11.310;2024-01-15T03:31:25;93650.88;;;-1.21;90.00
75051;BME280;63628;47.656;11.310;2024-01-15T03:33:53;93655.19;;;-1.56;88.73
75051;BME280;63628;47.656;11.310;2024-01-15T03:36:20;93659.31;;;-1.13;90.36
75051;BME280;63628;47.656;11.310;2024-01-15T03:38:46;93670.78;;;-1.29;89.19
75051;BME280;63628;47.656;11.310;2024-01-15T03:41:13;93664.13;;;-1.10;89.91
75051;BME280;63628;47.656;11.310;2024-01-15T03:43:40;93673.34;;;-1.07;90.16
75051;BME280;63628;47.656;11.310;2024-01-15T03:46:07;93672.41;;;-1.49;88.77
75051;BME280;63628;47.656;11.310;2024-01-15T03:48:33;93666.66;;;-1.23;90.08
75051;BME280;63628;47.656;11.310;2024-01-15T03:51:02;93674.13;;;-1.56;88.67
75051;BME280;63628;47.656;11.310;2024-01-15T03:53:29;93675.56;;;-1.53;88.60
75051;BME280;63628;47.656;11.310;2024-01-15T03:55:55;93676.16;;;-1.30;89.55
75051;BME280;63628;47.656;11.310;2024-01-15T03:58:22;93682.34;;;-1.52;88.84
75051;BME280;63628;47.656;11.310;2024-01-15T04:00:49;93679.06;;;-1.61;88.09
75051;BME280;63628;47.656;11.310;2024-01-15T04:03:16;93688.66;;;-1.62;88.19
75051;BME280;63628;47.656;11.310;2024-01-15T04:05:43;93679.91;;;-1.33;87.62
75051;BME280;63628;47.656;11.310;2024-01-15T04:08:11;93674.88;;;-1.41;87.97
75051;BME280;63628;47.656;11.310;2024-01-15T04:10:38;93684.09;;;-1.60;87.73
75051;BME280;63628;47.656;11.310;2024-01-15T04:13:04;93681.97;;;-1.49;88.72
75051;BME280;63628;47.656;11.310;2024-01-15T04:15:31;93679.72;;;-1.31;88.18
75051;BME280;63628;47.656;11.310;2024-01-15T04:17:58;93672.84;;;-1.45;87.43
75051;BME280;63628;47.656;11.310;2024-01-15T04:20:25;93671.97;;;-1.52;87.40
75051;BME280;63628;47.656;11.310;2024-01-15T04:22:52;93669.44;;;-1.46;87.66
75051;BME280;63628;47.656;11.310;2024-01-15T04:25:20;93665.00;;;-1.52;87.82
75051;BME280;63628;47.656;11.310;2024-01-15T04:27:47;93668.28;;;-1.65;87.57
75051;BME280;63628;47.656;11.310;2024-01-15T04:30:13;93667.53;;;-1.58;87.42
75051;BME280;63628;47.656;11.310;2024-01-15T04:32:40;93667.72;;;-1.60;87.10
75051;BME280;63628;47.656;11.310;2024-01-15T04:35:07;93667.81;;;-1.47;86.04
75051;BME280;63628;47.656;11.310;2024-01-15T04:37:34;93667.72;;;-1.60;86.11
75051;BME280;63628;47.656;11.310;2024-01-15T04:40:02;93682.78;;;-1.70;86.24
75051;BME280;63628;47.656;11.310;2024-01-15T04:42:31;93677.00;;;-1.72;85.78
75051;BME280;63628;47.656;11.310;2024-01-15T04:44:58;93681.44;;;-1.66;85.93
75051;BME280;63628;47.656;11.310;2024-01-15T04:47:25;93675.44;;;-1.67;85.68
75051;BME280;63628;47.656;11.310;2024-01-15T04:49:52;93674.56;;;-1.74;86.18
75051;BME280;63628;47.656;11.310;2024-01-15T04:52:19;93672.00;;;-1.74;85.60
75051;BME280;63628;47.656;11.310;2024-01-15T04:54:45;93681.75;;;-1.76;84.98
75051;BME280;63628;47.656;11.310;2024-01-15T04:57:12;93679.63;;;-1.66;87.06
75051;BME280;63628;47.656;11.310;2024-01-15T04:59:40;93684.28;;;-1.82;85.10
75051;BME280;63628;47.656;11.310;2024-01-15T05:02:07;93677.47;;;-1.62;87.02
75051;BME280;63628;47.656;11.310;2024-01-15T05:04:34;93677.66;;;-1.64;87.40
75051;BME280;63628;47.656;11.310;2024-01-15T05:07:01;93680.81;;;-1.68;86.78
75051;BME280;63628;47.656;11.310;2024-01-15T05:09:27;93682.72;;;-1.77;86.32
75051;BME280;63628;47.656;11.310;2024-01-15T05:11:58;93686.69;;;-1.81;83.44
75051;BME280;63628;47.656;11.310;2024-01-15T05:14:25;93675.50;;;-1.60;87.04
75051;BME280;63628;47.656;11.310;2024-01-15T05:16:53;93676.91;;;-1.57;87.52
75051;BME280;63628;47.656;11.310;2024-01-15T05:19:20;93674.94;;;-1.55;87.65
75051;BME280;63628;47.656;11.310;2024-01-15T05:21:47;93683.09;;;-1.80;86.10
75051;BME280;63628;47.656;11.310;2024-01-15T05:24:13;93687.53;;;-1.52;87.46
75051;BME280;63628;47.656;11.310;2024-01-15T05:26:40;93684.94;;;-1.52;87.48
75051;BME280;63628;47.656;11.310;2024-01-15T05:29:07;93689.03;;;-1.86;85.85
75051;BME280;63628;47.656;11.310;2024-01-15T05:31:35;93691.78;;;-1.87;85.00
75051;BME280;63628;47.656;11.310;2024-01-15T05:34:03;93686.88;;;-1.97;84.89
75051;BME280;63628;47.656;11.310;2024-01-15T05:36:31;93687.34;;;-1.72;86.48
75051;BME280;63628;47.656;11.310;2024-01-15T05:38:57;93685.75;;;-1.73;86.87
75051;BME280;63628;47.656;11.310;2024-01-15T05:41:24;93681.63;;;-1.68;86.20
75051;BME280;63628;47.656;11.310;2024-01-15T05:43:51;93689.16;;;-1.73;86.55
75051;BME280;63628;47.656;11.310;2024-01-15T05:46:17;93694.44;;;-1.81;85.89
75051;BME280;63628;47.656;11.310;2024-01-15T05:48:44;93690.63;;;-1.85;83.95
75051;BME280;63628;47.656;11.310;2024-01-15T05:51:12;93682.28;;;-1.80;82.19
75051;BME280;63628;47.656;11.310;2024-01-15T05:53:39;93679.31;;;-1.56;86.63
75051;BME280;63628;47.656;11.310;2024-01-15T05:56:08;93671.97;;;-1.52;86.56
75051;BME280;63628;47.656;11.310;2024-01-15T05:58:34;93675.31;;;-1.58;87.11
75051;BME280;63628;47.656;11.310;2024-01-15T06:01:01;93673.41;;;-1.71;86.45
75051;BME280;63628;47.656;11.310;2024-01-15T06:03:28;93678.72;;;-1.79;86.08
75051;BME280;63628;47.656;11.310;2024-01-15T06:05:54;93683.78;;;-1.93;85.41
75051;BME280;63628;47.656;11.310;2024-01-15T06:08:23;93685.44;;;-1.85;83.32
75051;BME280;63628;47.656;11.310;2024-01-15T06:10:49;93687.41;;;-1.87;84.35
75051;BME280;63628;47.656;11.310;2024-01-15T06:13:16;93683.66;;;-1.99;82.95
75051;BME280;63628;47.656;11.310;2024-01-15T06:15:43;93678.50;;;-1.99;82.21
75051;BME280;63628;47.656;11.310;2024-01-15T06:18:09;93681.19;;;-1.93;83.33
75051;BME280;63628;47.656;11.310;2024-01-15T06:20:36;93683.16;;;-1.95;82.55
75051;BME280;63628;47.656;11.310;2024-01-15T06:23:03;93685.38;;;-1.92;83.74
75051;BME280;63628;47.656;11.310;2024-01-15T06:25:31;93685.06;;;-1.61;86.87
75051;BME280;63628;47.656;11.310;2024-01-15T06:27:58;93683.16;;;-1.95;82.81
75051;BME280;63628;47.656;11.310;2024-01-15T06:30:25;93680.09;;;-1.98;81.72
75051;BME280;63628;47.656;11.310;2024-01-15T06:32:51;93676.50;;;-1.97;81.48
75051;BME280;63628;47.656;11.310;2024-01-15T06:35:18;93672.50;;;-2.00;81.44
75051;BME280;63628;47.656;11.310;2024-01-15T06:37:48;93676.34;;;-1.96;81.56
75051;BME280;63628;47.656;11.310;2024-01-15T06:40:15;93671.00;;;-1.94;81.13
75051;BME280;63628;47.656;11.310;2024-01-15T06:42:43;93671.69;;;-2.00;81.36
75051;BME280;63628;47.656;11.310;2024-01-15T06:45:10;93674.91;;;-1.98;81.78
75051;BME280;63628;47.656;11.310;2024-01-15T06:47:37;93674.56;;;-1.95;83.05
75051;BME280;63628;47.656;11.310;2024-01-15T06:50:04;93670.69;;;-1.84;84.33
75051;BME280;63628;47.656;11.310;2024-01-15T06:52:33;93655.75;;;-1.61;87.06
75051;BME280;63628;47.656;11.310;2024-01-15T06:55:00;93668.94;;;-1.56;87.13
75051;BME280;63628;47.656;11.310;2024-01-15T06:57:26;93669.38;;;-1.52;87.43
75051;BME280;63628;47.656;11.310;2024-01-15T06:59:55;93666.97;;;-1.54;87.02
75051;BME280;63628;47.656;11.310;2024-01-15T07:02:21;93674.41;;;-1.72;86.07
75051;BME280;63628;47.656;11.310;2024-01-15T07:04:48;93672.66;;;-1.86;85.85
75051;BME280;63628;47.656;11.310;2024-01-15T07:07:15;93665.75;;;-1.58;87.38
75051;BME280;63628;47.656;11.310;2024-01-15T07:09:41;93672.94;;;-1.96;82.76
75051;BME280;63628;47.656;11.310;2024-01-15T07:12:08;93667.03;;;-1.90;83.43
75051;BME280;63628;47.656;11.310;2024-01-15T07:14:35;93645.19;;;-1.60;85.43
75051;BME280;63628;47.656;11.310;2024-01-15T07:17:03;93650.09;;;-1.43;86.45
75051;BME280;63628;47.656;11.310;2024-01-15T07:19:30;93657.03;;;-1.72;85.81
75051;BME280;63628;47.656;11.310;2024-01-15T07:21:56;93643.94;;;-1.64;86.60
75051;BME280;63628;47.656;11.310;2024-01-15T07:24:23;93648.56;;;-1.59;86.42
75051;BME280;63628;47.656;11.310;2024-01-15T07:26:50;93649.25;;;-1.50;87.68
75051;BME280;63628;47.656;11.310;2024-01-15T07:29:16;93658.16;;;-1.81;83.99
75051;BME280;63628;47.656;11.310;2024-01-15T07:31:48;93652.78;;;-1.79;84.15
75051;BME280;63628;47.656;11.310;2024-01-15T07:34:16;93651.69;;;-1.92;82.98
75051;BME280;63628;47.656;11.310;2024-01-15T07:36:44;93642.09;;;-1.70;85.96
75051;BME280;63628;47.656;11.310;2024-01-15T07:39:10;93648.09;;;-1.69;85.95
75051;BME280;63628;47.656;11.310;2024-01-15T07:41:38;93645.97;;;-1.59;86.99
75051;BME280;63628;47.656;11.310;2024-01-15T07:44:05;93645.53;;;-1.41;86.89
75051;BME280;63628;47.656;11.310;2024-01-15T07:46:31;93643.69;;;-1.47;87.70
75051;BME280;63628;47.656;11.310;2024-01-15T07:48:58;93638.72;;;-1.42;87.43
75051;BME280;63628;47.656;11.310;2024-01-15T07:51:26;93622.03;;;-1.61;86.08
75051;BME280;63628;47.656;11.310;2024-01-15T07:53:53;93637.13;;;-1.43;87.41
75051;BME280;63628;47.656;11.310;2024-01-15T07:56:21;93632.00;;;-1.37;87.56
75051;BME280;63628;47.656;11.310;2024-01-15T07:58:48;93635.75;;;-1.39;87.83
75051;BME280;63628;47.656;11.310;2024-01-15T08:01:15;93626.38;;;-1.40;87.21
75051;BME280;63628;47.656;11.310;2024-01-15T08:03:42;93629.16;;;-1.42;87.80
75051;BME280;63628;47.656;11.310;2024-01-15T08:06:08;93622.00;;;-1.40;87.33
75051;BME280;63628;47.656;11.310;2024-01-15T08:08:38;93631.00;;;-1.36;87.30
75051;BME280;63628;47.656;11.310;2024-01-15T08:11:04;93623.53;;;-1.45;86.32
75051;BME280;63628;47.656;11.310;2024-01-15T08:13:31;93620.94;;;-1.45;87.35
75051;BME280;63628;47.656;11.310;2024-01-15T08:15:58;93620.19;;;-1.39;87.80
75051;BME280;63628;47.656;11.310;2024-01-15T08:18:25;93623.81;;;-1.34;87.86
75051;BME280;63628;47.656;11.310;2024-01-15T08:20:52;93625.44;;;-1.33;87.26
75051;BME280;63628;47.656;11.310;2024-01-15T08:23:19;93627.22;;;-1.33;87.83
75051;BME280;63628;47.656;11.310;2024-01-15T08:25:47;93622.84;;;-1.33;87.77
75051;BME280;63628;47.656;11.310;2024-01-15T08:28:14;93625.88;;;-1.29;87.22
75051;BME280;63628;47.656;11.310;2024-01-15T08:30:41;93614.66;;;-1.85;87.34
75051;BME280;63628;47.656;11.310;2024-01-15T08:33:07;93622.94;;;-1.47;87.60
75051;BME280;63628;47.656;11.310;2024-01-15T08:35:47;93615.44;;;-1.36;87.78
75051;BME280;63628;47.656;11.310;2024-01-15T08:38:13;93620.84;;;-1.31;87.67
75051;BME280;63628;47.656;11.310;2024-01-15T08:40:40;93634.41;;;-1.35;87.72
75051;BME280;63628;47.656;11.310;2024-01-15T08:43:08;93630.00;;;-1.35;86.55
75051;BME280;63628;47.656;11.310;2024-01-15T08:45:35;93627.97;;;-1.39;86.30
75051;BME280;63628;47.656;11.310;2024-01-15T08:48:02;93635.47;;;-1.30;87.04
75051;BME280;63628;47.656;11.310;2024-01-15T08:50:33;93636.00;;;-1.34;86.87
75051;BME280;63628;47.656;11.310;2024-01-15T08:52:59;93630.75;;;-1.41;85.03
75051;BME280;63628;47.656;11.310;2024-01-15T08:55:26;93641.69;;;-1.24;86.97
75051;BME280;63628;47.656;11.310;2024-01-15T08:57:52;93635.81;;;-1.33;86.72
75051;BME280;63628;47.656;11.310;2024-01-15T09:00:21;93628.81;;;-1.32;85.87
75051;BME280;63628;47.656;11.310;2024-01-15T09:02:47;93633.28;;;-1.26;86.97
75051;BME280;63628;47.656;11.310;2024-01-15T09:05:14;93636.50;;;-0.89;88.18
75051;BME280;63628;47.656;11.310;2024-01-15T09:07:41;93632.34;;;-1.18;85.01
75051;BME280;63628;47.656;11.310;2024-01-15T09:10:08;93634.28;;;-0.92;86.17
75051;BME280;63628;47.656;11.310;2024-01-15T09:12:35;93633.72;;;-0.88;86.26
75051;BME280;63628;47.656;11.310;2024-01-15T09:15:01;93642.16;;;-1.14;86.23
75051;BME280;63628;47.656;11.310;2024-01-15T09:17:32;93654.09;;;-1.19;86.41
75051;BME280;63628;47.656;11.310;2024-01-15T09:19:59;93634.59;;;-0.74;86.71
75051;BME280;63628;47.656;11.310;2024-01-15T09:22:27;93640.97;;;-1.11;86.79
75051;BME280;63628;47.656;11.310;2024-01-15T09:24:53;93648.22;;;-1.00;87.27
75051;BME280;63628;47.656;11.310;2024-01-15T09:27:20;93643.81;;;-1.06;86.66
75051;BME280;63628;47.656;11.310;2024-01-15T09:29:47;93638.03;;;-1.02;85.60
75051;BME280;63628;47.656;11.310;2024-01-15T09:32:13;93643.22;;;-1.02;86.41
75051;BME280;63628;47.656;11.310;2024-01-15T09:34:41;93646.81;;;-1.03;85.66
75051;BME280;63628;47.656;11.310;2024-01-15T09:37:08;93650.94;;;-0.80;85.63
75051;BME280;63628;47.656;11.310;2024-01-15T09:39:40;93646.25;;;-0.98;86.11
75051;BME280;63628;47.656;11.310;2024-01-15T09:42:07;93651.00;;;-0.67;83.74
75051;BME280;63628;47.656;11.310;2024-01-15T09:44:34;93653.91;;;-0.83;84.86
75051;BME280;63628;47.656;11.310;2024-01-15T09:47:01;93648.72;;;-0.83;86.10
75051;BME280;63628;47.656;11.310;2024-01-15T09:49:28;93645.59;;;-0.72;84.98
75051;BME280;63628;47.656;11.310;2024-01-15T09:51:58;93639.81;;;-0.68;83.39
75051;BME280;63628;47.656;11.310;2024-01-15T09:54:37;93646.94;;;-0.83;85.34
75051;BME280;63628;47.656;11.310;2024-01-15T09:57:05;93642.44;;;-0.13;83.01
75051;BME280;63628;47.656;11.310;2024-01-15T09:59:32;93641.50;;;0.01;85.99
75051;BME280;63628;47.656;11.310;2024-01-15T10:02:01;93640.56;;;0.55;86.25
75051;BME280;63628;47.656;11.310;2024-01-15T10:04:29;93637.16;;;0.48;82.14
75051;BME280;63628;47.656;11.310;2024-01-15T10:06:59;93632.84;;;-0.19;86.17
75051;BME280;63628;47.656;11.310;2024-01-15T10:09:27;93632.94;;;1.06;85.47
75051;BME280;63628;47.656;11.310;2024-01-15T10:11:54;93632.16;;;1.06;81.94
75051;BME280;63628;47.656;11.310;2024-01-15T10:14:21;93631.44;;;1.56;82.80
75051;BME280;63628;47.656;11.310;2024-01-15T10:16:48;93641.56;;;0.60;79.43
75051;BME280;63628;47.656;11.310;2024-01-15T10:19:14;93638.19;;;0.80;78.73
75051;BME280;63628;47.656;11.310;2024-01-15T10:21:41;93629.00;;;1.62;76.89
75051;BME280;63628;47.656;11.310;2024-01-15T10:24:09;93626.50;;;1.35;81.26
75051;BME280;63628;47.656;11.310;2024-01-15T10:26:36;93615.41;;;2.36;76.27
75051;BME280;63628;47.656;11.310;2024-01-15T10:29:03;93614.47;;;1.41;85.87
75051;BME280;63628;47.656;11.310;2024-01-15T10:31:30;93604.59;;;2.57;74.42
75051;BME280;63628;47.656;11.310;2024-01-15T10:34:09;93608.97;;;0.71;81.95
75051;BME280;63628;47.656;11.310;2024-01-15T10:36:39;93590.03;;;2.18;77.50
75051;BME280;63628;47.656;11.310;2024-01-15T10:39:06;93598.50;;;2.38;75.91
75051;BME280;63628;47.656;11.310;2024-01-15T10:41:35;93595.88;;;2.95;76.82
75051;BME280;63628;47.656;11.310;2024-01-15T10:44:02;93598.69;;;2.93;75.32
75051;BME280;63628;47.656;11.310;2024-01-15T10:46:29;93592.09;;;2.91;75.41
75051;BME280;63628;47.656;11.310;2024-01-15T10:48:57;93593.06;;;1.70;73.59
75051;BME280;63628;47.656;11.310;2024-01-15T10:51:23;93589.41;;;2.22;75.18
75051;BME280;63628;47.656;11.310;2024-01-15T10:53:53;93597.13;;;0.88;80.58
75051;BME280;63628;47.656;11.310;2024-01-15T10:56:21;93592.28;;;1.05;81.58
75051;BME280;63628;47.656;11.310;2024-01-15T10:58:50;93586.75;;;1.53;74.67
75051;BME280;63628;47.656;11.310;2024-01-15T11:01:17;93594.28;;;1.68;75.04
75051;BME280;63628;47.656;11.310;2024-01-15T11:03:46;93588.50;;;2.04;75.04
75051;BME280;63628;47.656;11.310;2024-01-15T11:06:17;93592.59;;;2.25;76.33
75051;BME280;63628;47.656;11.310;2024-01-15T11:08:48;93589.34;;;1.91;74.98
75051;BME280;63628;47.656;11.310;2024-01-15T11:11:16;93590.16;;;1.53;76.82
75051;BME280;63628;47.656;11.310;2024-01-15T11:13:43;93590.38;;;1.90;77.00
75051;BME280;63628;47.656;11.310;2024-01-15T11:16:14;93576.97;;;1.28;72.52
75051;BME280;63628;47.656;11.310;2024-01-15T11:18:43;93586.34;;;0.25;80.71
75051;BME280;63628;47.656;11.310;2024-01-15T11:21:20;93582.75;;;1.50;75.48
75051;BME280;63628;47.656;11.310;2024-01-15T11:23:49;93588.72;;;1.57;80.01
75051;BME280;63628;47.656;11.310;2024-01-15T11:26:30;93595.84;;;1.17;77.63
75051;BME280;63628;47.656;11.310;2024-01-15T11:28:58;93589.38;;;1.46;79.25
75051;BME280;63628;47.656;11.310;2024-01-15T11:31:29;93579.41;;;2.13;73.30
75051;BME280;63628;47.656;11.310;2024-01-15T11:33:56;93587.13;;;0.59;77.92
75051;BME280;63628;47.656;11.310;2024-01-15T11:39:39;93578.06;;;1.01;76.84
75051;BME280;63628;47.656;11.310;2024-01-15T11:42:06;93573.13;;;0.27;81.14
75051;BME280;63628;47.656;11.310;2024-01-15T11:44:33;93571.84;;;1.02;81.50
75051;BME280;63628;47.656;11.310;2024-01-15T11:47:02;93573.47;;;0.97;74.55
75051;BME280;63628;47.656;11.310;2024-01-15T11:49:53;93554.47;;;1.54;75.48
75051;BME280;63628;47.656;11.310;2024-01-15T11:52:25;93562.97;;;1.74;75.48
75051;BME280;63628;47.656;11.310;2024-01-15T11:54:55;93564.66;;;0.98;76.59
75051;BME280;63628;47.656;11.310;2024-01-15T11:57:33;93555.31;;;0.11;82.13
75051;BME280;63628;47.656;11.310;2024-01-15T12:00:03;93555.94;;;1.37;78.23
75051;BME280;63628;47.656;11.310;2024-01-15T12:02:32;93551.63;;;1.55;75.97
75051;BME280;63628;47.656;11.310;2024-01-15T12:04:58;93549.16;;;1.22;71.84
75051;BME280;63628;47.656;11.310;2024-01-15T12:07:25;93555.13;;;0.65;77.08
75051;BME280;63628;47.656;11.310;2024-01-15T12:09:52;93553.31;;;0.66;80.38
75051;BME280;63628;47.656;11.310;2024-01-15T12:12:26;93555.31;;;0.37;73.81
75051;BME280;63628;47.656;11.310;2024-01-15T12:14:54;93541.28;;;0.45;75.41
75051;BME280;63628;47.656;11.310;2024-01-15T12:17:21;93551.91;;;0.04;81.11
75051;BME280;63628;47.656;11.310;2024-01-15T12:19:49;93543.50;;;0.68;78.92
75051;BME280;63628;47.656;11.310;2024-01-15T12:22:16;93544.88;;;0.63;76.91
75051;BME280;63628;47.656;11.310;2024-01-15T12:24:43;93546.25;;;0.92;72.89
75051;BME280;63628;47.656;11.310;2024-01-15T12:27:10;93549.50;;;0.68;72.08
75051;BME280;63628;47.656;11.310;2024-01-15T12:29:38;93547.13;;;0.34;79.22
75051;BME280;63628;47.656;11.310;2024-01-15T12:32:05;93535.25;;;0.64;67.76
75051;BME280;63628;47.656;11.310;2024-01-15T12:34:31;93525.09;;;1.20;73.26
75051;BME280;63628;47.656;11.310;2024-01-15T12:37:00;93530.91;;;0.38;78.33
75051;BME280;63628;47.656;11.310;2024-01-15T12:39:27;93520.91;;;0.02;79.05
75051;BME280;63628;47.656;11.310;2024-01-15T12:41:54;93527.50;;;0.24;76.81
75051;BME280;63628;47.656;11.310;2024-01-15T12:44:20;93520.06;;;-0.05;82.05
75051;BME280;63628;47.656;11.310;2024-01-15T12:46:48;93522.69;;;-0.05;83.11
75051;BME280;63628;47.656;11.310;2024-01-15T12:49:14;93515.91;;;0.14;80.25
75051;BME280;63628;47.656;11.310;2024-01-15T12:51:41;93519.69;;;0.31;71.16
75051;BME280;63628;47.656;11.310;2024-01-15T12:54:09;93517.09;;;0.11;79.37
75051;BME280;63628;47.656;11.310;2024-01-15T12:56:36;93512.25;;;0.61;71.93